Time;durP1;ratioP1;P1;durP2;ratioP2;P2;SDS_P1;SDS_P2;PMS_P1;PMS_P2;Temp;Humidity;BMP_temperature;BMP_pressure;BME280_temperature;BME280_humidity;BME280_pressure;Samples;Min_cycle;Max_cycle;Signal;HPM_P1;HPM_P2
2021/09/18 00:01:35;;;;;;;12.13;8.13;;;;;;;14.02;100.00;98575.28;4329017;80;21050;-85
2021/09/18 00:07:37;;;;;;;9.90;6.60;;;;;;;13.97;100.00;98578.46;4417496;78;22121;-85
2021/09/18 00:13:38;;;;;;;8.88;6.58;;;;;;;13.93;100.00;98570.84;4365184;79;21059;-85
2021/09/18 00:19:39;;;;;;;12.68;6.87;;;;;;;13.93;100.00;98582.44;4377906;79;21026;-85
2021/09/18 00:25:40;;;;;;;7.47;5.47;;;;;;;13.87;100.00;98586.82;4367543;79;21625;-86
2021/09/18 00:31:41;;;;;;;11.05;6.65;;;;;;;13.81;100.00;98579.58;4372534;78;20990;-86
2021/09/18 00:37:42;;;;;;;12.30;6.08;;;;;;;13.76;100.00;98582.79;4381356;79;21523;-86
2021/09/18 00:43:53;;;;;;;10.25;6.15;;;;;;;13.76;100.00;98586.91;4375636;79;21046;-86
2021/09/18 00:49:55;;;;;;;8.93;5.83;;;;;;;13.74;100.00;98582.98;4379765;79;21065;-86
2021/09/18 00:55:56;;;;;;;12.10;5.62;;;;;;;13.72;100.00;98584.77;4375742;79;22345;-88
2021/09/18 01:01:59;;;;;;;9.38;5.00;;;;;;;13.69;100.00;98587.54;4381014;79;21082;-86
2021/09/18 01:08:01;;;;;;;6.40;5.40;;;;;;;13.72;100.00;98593.02;4361597;79;21164;-87
2021/09/18 01:14:02;;;;;;;11.55;6.10;;;;;;;13.72;100.00;98600.48;4367968;79;21160;-88
2021/09/18 01:20:05;;;;;;;9.10;5.42;;;;;;;13.72;100.00;98589.48;4446553;77;21684;-87
2021/09/18 01:26:08;;;;;;;9.83;6.08;;;;;;;13.73;100.00;98586.94;4444975;77;21015;-86
2021/09/18 01:32:09;;;;;;;11.75;7.03;;;;;;;13.71;100.00;98584.59;4459206;77;21077;-86
2021/09/18 01:38:10;;;;;;;7.83;5.55;;;;;;;13.70;100.00;98578.13;4425198;78;21033;-86
2021/09/18 01:44:14;;;;;;;11.05;7.15;;;;;;;13.67;100.00;98570.69;4434207;77;21486;-85
2021/09/18 01:50:35;;;;;;;10.45;7.60;;;;;;;13.67;100.00;98565.95;4433624;77;21016;-85
2021/09/18 01:56:36;;;;;;;14.15;8.95;;;;;;;13.73;100.00;98562.19;4368897;80;21094;-88
2021/09/18 02:02:37;;;;;;;15.23;9.00;;;;;;;13.70;100.00;98568.50;4440678;77;21039;-85
2021/09/18 02:08:39;;;;;;;9.55;6.87;;;;;;;13.61;100.00;98568.16;4376901;79;21076;-86
2021/09/18 02:14:40;;;;;;;16.05;8.23;;;;;;;13.58;100.00;98564.25;4376066;79;21090;-87
2021/09/18 02:20:42;;;;;;;10.00;6.45;;;;;;;13.62;100.00;98563.65;4414585;78;21539;-87
2021/09/18 02:26:43;;;;;;;9.10;5.22;;;;;;;13.58;100.00;98563.47;4330832;80;21030;-85
2021/09/18 02:32:45;;;;;;;7.58;4.53;;;;;;;13.51;100.00;98564.33;4445294;78;21023;-85
2021/09/18 02:38:46;;;;;;;7.00;4.22;;;;;;;13.47;100.00;98562.17;4441116;77;21550;-85
2021/09/18 02:44:48;;;;;;;5.37;3.22;;;;;;;13.45;100.00;98561.03;4352207;79;21069;-85
2021/09/18 02:50:49;;;;;;;7.03;3.42;;;;;;;13.42;100.00;98559.09;4367359;79;21066;-86
2021/09/18 02:56:51;;;;;;;4.83;3.40;;;;;;;13.40;100.00;98551.25;4347622;80;21554;-86
2021/09/18 03:02:52;;;;;;;8.28;3.58;;;;;;;13.42;100.00;98554.97;4456109;77;21044;-86
2021/09/18 03:08:55;;;;;;;7.78;3.12;;;;;;;13.43;100.00;98553.19;4452213;77;21074;-86
2021/09/18 03:14:57;;;;;;;4.37;2.85;;;;;;;13.43;100.00;98549.64;4372153;79;21336;-85
2021/09/18 03:20:58;;;;;;;5.53;3.10;;;;;;;13.39;100.00;98551.03;4444294;77;21045;-88
2021/09/18 03:26:59;;;;;;;4.55;3.08;;;;;;;13.32;100.00;98551.69;4436706;77;21061;-84
2021/09/18 03:33:00;;;;;;;7.90;3.10;;;;;;;13.30;100.00;98545.80;4456166;77;21021;-86
2021/09/18 03:39:03;;;;;;;5.12;3.17;;;;;;;13.28;100.00;98546.81;4426229;78;21039;-88
2021/09/18 03:45:06;;;;;;;7.50;4.95;;;;;;;13.24;100.00;98539.97;4442300;78;21038;-86
2021/09/18 03:51:07;;;;;;;7.35;4.53;;;;;;;13.24;100.00;98545.45;4437069;78;21068;-86
2021/09/18 03:57:08;;;;;;;8.18;5.37;;;;;;;13.25;100.00;98535.25;4438342;77;21096;-85
2021/09/18 04:03:10;;;;;;;8.33;5.20;;;;;;;13.25;100.00;98536.02;4434975;78;21653;-86
2021/09/18 04:09:12;;;;;;;10.72;6.50;;;;;;;13.25;100.00;98536.63;4341746;80;21066;-85
2021/09/18 04:15:13;;;;;;;7.85;5.35;;;;;;;13.25;100.00;98534.64;4350730;80;21671;-86
2021/09/18 04:21:15;;;;;;;5.62;5.03;;;;;;;13.24;100.00;98543.30;4356428;79;21035;-87
2021/09/18 04:27:17;;;;;;;8.23;5.08;;;;;;;13.17;100.00;98543.36;4413251;77;22276;-86
2021/09/18 04:33:18;;;;;;;8.55;4.42;;;;;;;13.15;100.00;98547.09;4456552;77;21024;-86
2021/09/18 04:39:19;;;;;;;12.20;4.90;;;;;;;13.16;100.00;98551.39;4450803;77;21453;-86
2021/09/18 04:45:20;;;;;;;9.98;4.85;;;;;;;13.16;100.00;98556.30;4477390;77;21030;-88
2021/09/18 04:51:21;;;;;;;8.55;5.08;;;;;;;13.18;100.00;98562.77;4430447;78;21058;-87
2021/09/18 04:57:23;;;;;;;9.58;5.17;;;;;;;13.20;100.00;98565.91;4425464;78;21112;-86
2021/09/18 05:03:25;;;;;;;8.50;5.35;;;;;;;13.19;100.00;98558.83;4368523;79;21110;-86
2021/09/18 05:09:27;;;;;;;9.90;5.30;;;;;;;13.18;100.00;98563.56;4422407;78;21625;-86
2021/09/18 05:15:29;;;;;;;9.73;4.97;;;;;;;13.22;100.00;98560.77;4415704;78;21101;-86
2021/09/18 05:21:33;;;;;;;8.33;5.08;;;;;;;13.25;100.00;98577.25;4345643;80;21078;-86
2021/09/18 05:27:33;;;;;;;9.03;3.75;;;;;;;13.25;100.00;98575.87;4358088;79;21057;-87
2021/09/18 05:33:35;;;;;;;5.00;3.10;;;;;;;13.22;100.00;98573.93;4348985;79;21122;-89
2021/09/18 05:39:36;;;;;;;5.10;3.25;;;;;;;13.27;100.00;98581.76;4367110;79;21066;-86
2021/09/18 05:45:38;;;;;;;5.35;3.37;;;;;;;13.30;100.00;98583.70;4428303;78;21086;-87
2021/09/18 05:51:39;;;;;;;5.33;3.65;;;;;;;13.29;99.91;98583.52;4342999;80;21586;-87
2021/09/18 05:57:40;;;;;;;5.25;3.67;;;;;;;13.30;100.00;98587.83;4342991;80;21918;-87
2021/09/18 06:03:43;;;;;;;6.72;3.95;;;;;;;13.31;99.75;98592.74;4306028;80;21783;-86
2021/09/18 06:09:44;;;;;;;8.65;3.70;;;;;;;13.31;99.61;98598.23;4407284;78;21062;-86
2021/09/18 06:15:45;;;;;;;5.25;4.45;;;;;;;13.33;99.82;98595.27;4352966;79;21064;-86
2021/09/18 06:21:47;;;;;;;6.03;4.15;;;;;;;13.33;99.49;98595.27;4429452;78;21528;-87
2021/09/18 06:27:48;;;;;;;10.25;5.95;;;;;;;13.41;99.44;98596.00;4417705;78;21074;-87
2021/09/18 06:33:51;;;;;;;8.40;5.58;;;;;;;13.47;99.09;98596.55;4422327;78;21069;-87
2021/09/18 06:39:53;;;;;;;5.60;4.90;;;;;;;13.49;98.91;98599.69;4417277;78;20976;-87
2021/09/18 06:45:54;;;;;;;10.85;4.53;;;;;;;13.56;98.81;98601.61;4403213;78;21523;-87
2021/09/18 06:51:56;;;;;;;12.75;4.53;;;;;;;13.55;98.29;98607.69;4416989;78;21051;-86
2021/09/18 06:57:57;;;;;;;6.97;4.37;;;;;;;13.54;98.10;98615.77;4426777;78;21066;-86
2021/09/18 07:03:58;;;;;;;6.33;5.55;;;;;;;13.50;97.91;98619.73;4418639;78;21054;-85
2021/09/18 07:10:00;;;;;;;8.85;5.08;;;;;;;13.42;97.63;98616.22;4432306;78;21073;-85
2021/09/18 07:16:02;;;;;;;5.90;3.72;;;;;;;13.39;97.86;98614.27;4429515;77;21513;-87
2021/09/18 07:22:04;;;;;;;9.63;3.83;;;;;;;13.43;97.94;98609.55;4457806;78;21052;-87
2021/09/18 07:28:06;;;;;;;6.55;3.27;;;;;;;13.45;97.67;98605.78;4453608;77;21066;-89
2021/09/18 07:34:09;;;;;;;5.55;2.75;;;;;;;13.51;97.46;98613.82;4436635;77;21025;-85
2021/09/18 07:40:12;;;;;;;5.15;3.00;;;;;;;13.57;97.52;98617.70;4363891;79;21802;-88
2021/09/18 07:46:14;;;;;;;6.45;2.92;;;;;;;13.54;96.95;98617.14;4355834;79;21059;-88
2021/09/18 07:52:16;;;;;;;3.98;3.47;;;;;;;13.51;96.95;98624.03;4372088;79;21102;-86
2021/09/18 07:58:19;;;;;;;4.35;3.33;;;;;;;13.48;96.79;98624.25;4354804;79;21137;-87
2021/09/18 08:04:20;;;;;;;5.28;3.33;;;;;;;13.50;96.83;98623.84;4437184;77;21101;-86
2021/09/18 08:10:22;;;;;;;4.12;2.90;;;;;;;13.49;96.77;98624.43;4458013;77;21046;-86
2021/09/18 08:16:25;;;;;;;5.87;2.90;;;;;;;13.50;96.81;98633.47;4326257;80;21111;-86
2021/09/18 08:22:26;;;;;;;4.97;3.80;;;;;;;13.54;96.68;98636.39;4348620;80;21493;-86
2021/09/18 08:28:27;;;;;;;7.70;3.70;;;;;;;13.62;96.30;98628.86;4452570;77;21006;-86
2021/09/18 08:34:29;;;;;;;6.17;4.15;;;;;;;13.64;96.25;98631.39;4413177;78;21022;-86
2021/09/18 08:40:36;;;;;;;7.40;4.85;;;;;;;13.66;95.78;98637.86;4448898;77;21010;-85
2021/09/18 08:46:37;;;;;;;;;;;;;;;13.70;95.88;98640.77;4366153;79;21058;-86
2021/09/18 08:52:41;;;;;;;6.25;4.97;;;;;;;13.65;94.82;98644.56;4433493;78;20217;-85
2021/09/18 08:58:42;;;;;;;9.03;5.60;;;;;;;13.69;95.29;98645.30;4418955;78;21505;-85
2021/09/18 09:04:45;;;;;;;8.58;6.60;;;;;;;13.76;95.27;98640.56;4321359;80;21096;-87
2021/09/18 09:10:48;;;;;;;6.90;5.25;;;;;;;13.88;95.12;98639.27;4375816;79;21133;-87
2021/09/18 09:17:05;;;;;;;6.60;4.65;;;;;;;14.01;94.85;98637.02;4365678;79;21087;-86
2021/09/18 09:23:29;;;;;;;4.20;3.80;;;;;;;14.16;94.43;98632.95;4356980;79;21065;-86
2021/09/18 09:29:48;;;;;;;2.87;2.62;;;;;;;14.32;93.90;98639.32;4358323;79;21042;-86
2021/09/18 09:35:49;;;;;;;5.25;3.08;;;;;;;14.40;93.56;98631.77;4374586;79;21066;-87
2021/09/18 09:41:54;;;;;;;2.50;2.30;;;;;;;14.48;93.51;98635.44;4364134;78;21063;-87
2021/09/18 09:48:09;;;;;;;2.83;2.42;;;;;;;14.53;93.15;98636.95;4381907;79;22236;-85
2021/09/18 09:54:23;;;;;;;3.00;2.02;;;;;;;14.60;92.81;98633.52;4365473;79;21681;-87
2021/09/18 10:00:38;;;;;;;3.10;2.08;;;;;;;14.61;92.22;98631.56;4364480;79;21034;-87
2021/09/18 10:06:40;;;;;;;3.05;2.55;;;;;;;14.62;91.84;98622.89;4381216;78;21117;-87
2021/09/18 10:12:43;;;;;;;2.90;2.17;;;;;;;14.69;91.52;98625.55;4360845;79;21050;-86
2021/09/18 10:18:45;;;;;;;2.77;1.52;;;;;;;14.75;91.06;98619.77;4382258;79;21290;-86
2021/09/18 10:24:47;;;;;;;2.15;1.30;;;;;;;14.81;90.85;98617.36;4377296;79;21669;-87
2021/09/18 10:30:53;;;;;;;6.60;1.72;;;;;;;14.93;90.77;98623.70;4371262;79;21085;-86
2021/09/18 10:36:55;;;;;;;1.87;1.35;;;;;;;15.06;90.87;98625.52;4361699;79;21557;-89
2021/09/18 10:42:56;;;;;;;5.05;1.70;;;;;;;15.08;89.80;98630.61;4374272;78;21041;-87
2021/09/18 10:48:59;;;;;;;2.90;1.60;;;;;;;14.89;89.35;98625.73;4382110;78;22336;-86
2021/09/18 10:55:09;;;;;;;3.40;1.75;;;;;;;14.74;89.24;98631.98;4376315;79;21073;-87
2021/09/18 11:01:16;;;;;;;2.35;1.67;;;;;;;14.63;89.15;98625.02;4374012;79;21069;-86
2021/09/18 11:07:42;;;;;;;3.15;1.72;;;;;;;14.59;88.81;98626.46;4375941;79;21062;-86
2021/09/18 11:13:44;;;;;;;5.67;2.00;;;;;;;14.59;88.80;98619.58;4371017;79;21031;-87
2021/09/18 11:19:55;;;;;;;2.45;1.87;;;;;;;14.64;88.50;98620.52;4377701;79;21080;-86
2021/09/18 11:25:56;;;;;;;4.40;1.67;;;;;;;14.72;88.78;98623.96;4375205;79;21085;-87
2021/09/18 11:32:13;;;;;;;4.78;1.80;;;;;;;14.87;89.03;98626.73;4383990;78;21624;-87
2021/09/18 11:38:14;;;;;;;3.33;1.50;;;;;;;14.87;88.28;98634.41;4379086;78;21074;-87
2021/09/18 11:44:15;;;;;;;4.60;1.80;;;;;;;14.81;87.78;98631.13;4368099;79;21051;-87
2021/09/18 11:50:38;;;;;;;3.58;1.77;;;;;;;14.72;87.27;98632.98;4372435;79;21073;-87
2021/09/18 11:56:40;;;;;;;3.20;1.90;;;;;;;14.60;87.04;98626.64;4372943;79;21049;-87
2021/09/18 12:02:41;;;;;;;4.95;2.40;;;;;;;14.57;87.15;98634.34;4353872;80;21097;-87
2021/09/18 12:08:47;;;;;;;4.33;2.37;;;;;;;14.55;86.76;98634.58;4363620;79;21007;-87
2021/09/18 12:14:52;;;;;;;4.17;2.10;;;;;;;14.57;86.40;98638.48;4363212;79;21051;-86
2021/09/18 12:21:20;;;;;;;4.28;2.20;;;;;;;14.64;86.37;98638.42;4338852;79;21129;-87
2021/09/18 12:27:34;;;;;;;10.25;3.42;;;;;;;14.81;86.76;98632.52;4436948;77;21109;-87
2021/09/18 12:33:35;;;;;;;6.53;3.22;;;;;;;15.02;86.94;98626.73;4443776;77;21072;-86
2021/09/18 12:39:36;;;;;;;3.92;2.90;;;;;;;15.20;86.73;98629.47;4418582;77;21076;-86
2021/09/18 12:45:39;;;;;;;4.22;3.33;;;;;;;15.32;86.23;98629.48;4444680;77;21058;-88
2021/09/18 12:51:44;;;;;;;5.03;2.77;;;;;;;15.41;85.81;98618.78;4359167;79;21085;-87
2021/09/18 12:57:45;;;;;;;3.77;3.10;;;;;;;15.56;86.03;98618.16;4370714;79;21053;-88
2021/09/18 13:04:03;;;;;;;4.05;2.75;;;;;;;15.66;85.66;98622.72;4430253;78;21069;-87
2021/09/18 13:10:06;;;;;;;9.03;3.12;;;;;;;15.74;85.51;98624.00;4333148;80;21113;-87
2021/09/18 13:16:08;;;;;;;4.65;2.90;;;;;;;15.80;85.08;98612.67;4443250;78;21598;-89
2021/09/18 13:22:10;;;;;;;4.97;3.42;;;;;;;15.83;85.19;98622.28;4456454;77;21553;-86
2021/09/18 13:28:11;;;;;;;7.30;3.70;;;;;;;15.85;84.51;98619.10;4440120;77;21065;-88
2021/09/18 13:34:12;;;;;;;7.83;2.83;;;;;;;15.76;84.70;98611.93;4363055;79;21125;-87
2021/09/18 13:40:13;;;;;;;3.90;2.60;;;;;;;15.68;84.54;98609.13;4386932;79;21070;-87
2021/09/18 13:46:14;;;;;;;4.65;2.67;;;;;;;15.71;84.64;98613.80;4361615;79;21115;-87
2021/09/18 13:52:17;;;;;;;5.83;2.60;;;;;;;15.73;84.12;98605.28;4370013;79;21061;-87
2021/09/18 13:58:18;;;;;;;3.83;2.42;;;;;;;15.78;84.54;98589.63;4367654;79;21114;-88
2021/09/18 14:04:19;;;;;;;3.50;2.20;;;;;;;15.74;84.15;98590.27;4381633;79;21050;-87
2021/09/18 14:10:21;;;;;;;4.80;3.17;;;;;;;15.63;83.66;98592.41;4419054;78;21109;-86
2021/09/18 14:16:22;;;;;;;5.30;3.22;;;;;;;15.43;83.39;98585.44;4428485;78;21125;-87
2021/09/18 14:22:24;;;;;;;5.05;2.83;;;;;;;15.29;83.24;98595.85;4415883;78;21056;-88
2021/09/18 14:28:25;;;;;;;5.53;2.62;;;;;;;15.16;83.46;98597.02;4334669;80;21084;-86
2021/09/18 14:34:26;;;;;;;4.37;2.75;;;;;;;15.10;83.26;98597.30;4436204;77;21328;-87
2021/09/18 14:40:28;;;;;;;4.35;2.77;;;;;;;15.09;83.11;98595.74;4440364;78;21015;-88
2021/09/18 14:46:29;;;;;;;3.90;2.50;;;;;;;15.09;83.15;98588.85;4432852;77;21519;-87
2021/09/18 14:52:30;;;;;;;4.85;2.42;;;;;;;15.08;83.28;98588.65;4460442;77;21083;-87
2021/09/18 14:58:32;;;;;;;5.05;2.60;;;;;;;15.10;83.71;98593.16;4451703;77;21072;-87
2021/09/18 15:04:33;;;;;;;5.45;2.98;;;;;;;15.13;83.84;98592.33;4368548;79;21070;-86
2021/09/18 15:10:34;;;;;;;4.08;2.80;;;;;;;15.12;83.70;98588.02;4361694;79;21073;-87
2021/09/18 15:16:36;;;;;;;4.95;2.90;;;;;;;15.10;83.98;98582.13;4375539;79;21063;-87
2021/09/18 15:22:37;;;;;;;8.73;3.20;;;;;;;15.05;83.92;98575.70;4419065;78;21564;-88
2021/09/18 15:28:38;;;;;;;5.78;3.33;;;;;;;15.06;83.91;98582.79;4432371;77;74316;-86
2021/09/18 16:28:46;;;;;;;7.47;5.25;;;;;;;14.18;86.48;98564.52;4310378;79;21025;-86
2021/09/18 16:41:40;;;;;;;11.03;6.72;;;;;;;13.96;87.22;98578.29;4354149;79;21507;-86
2021/09/18 17:07:42;;;;;;;6.75;4.35;;;;;;;13.59;88.94;98587.05;4360134;80;21046;-86
2021/09/18 17:20:44;;;;;;;8.23;4.50;;;;;;;13.54;89.92;98597.89;4370178;79;21569;-86
2021/09/18 17:33:37;;;;;;;9.30;5.17;;;;;;;13.51;90.64;98608.91;4383406;80;21102;-85
2021/09/18 17:46:29;;;;;;;9.68;5.37;;;;;;;13.47;91.49;98608.13;4362168;79;21090;-87
2021/09/18 18:26:26;;;;;;;9.13;6.60;;;;;;;13.41;93.54;98613.87;4390573;78;21157;-88
2021/09/18 18:33:33;;;;;;;9.03;6.83;;;;;;;13.40;93.76;98611.73;4375646;79;21070;-88
2021/09/18 19:06:20;;;;;;;11.05;5.87;;;;;;;13.37;95.46;98605.66;4367409;78;21070;-86
2021/09/18 19:12:33;;;;;;;9.95;6.12;;;;;;;13.39;95.71;98592.89;4411919;79;21093;-87
2021/09/18 19:18:40;;;;;;;9.28;6.22;;;;;;;13.41;95.91;98598.16;4379359;79;21077;-88
2021/09/18 19:31:46;;;;;;;11.50;6.12;;;;;;;13.39;96.38;98599.77;4396252;78;21964;-87
2021/09/18 19:44:34;;;;;;;10.82;6.95;;;;;;;13.41;96.83;98597.38;4428610;78;21047;-88
2021/09/18 19:50:44;;;;;;;9.70;8.28;;;;;;;13.41;97.21;98594.04;4320426;80;21015;-88
2021/09/18 19:57:01;;;;;;;9.50;7.87;;;;;;;13.42;97.38;98587.95;4318610;79;21130;-86
2021/09/18 20:03:03;;;;;;;10.08;2.70;;;;;;;13.34;97.55;98607.81;4348666;79;21114;-86
2021/09/18 20:23:47;;;;;;;3.58;1.80;;;;;;;12.78;98.02;98623.17;4265582;80;21121;-87
2021/09/18 20:29:48;;;;;;;3.60;1.62;;;;;;;12.76;98.27;98626.14;4340855;79;21059;-87
2021/09/18 20:36:00;;;;;;;3.85;2.12;;;;;;;12.79;98.60;98623.97;4393443;79;21031;-88
2021/09/18 20:48:56;;;;;;;2.52;2.33;;;;;;;12.77;97.98;98631.81;4417193;79;21033;-88
2021/09/18 21:09:27;;;;;;;5.85;2.98;;;;;;;12.78;98.04;98646.52;4361424;80;21039;-87
2021/09/18 21:16:23;;;;;;;4.60;2.83;;;;;;;12.75;98.20;98633.59;4264739;81;21053;-88
2021/09/18 21:22:52;;;;;;;5.45;4.00;;;;;;;12.79;98.26;98634.38;4345730;79;21638;-87
2021/09/18 21:29:00;;;;;;;5.87;3.37;;;;;;;12.72;98.12;98638.50;4301864;80;21159;-88
2021/09/18 21:35:09;;;;;;;5.60;3.08;;;;;;;12.72;98.27;98633.01;4309198;80;21048;-87
2021/09/18 21:41:43;;;;;;;5.80;3.77;;;;;;;12.70;98.20;98638.11;4304011;80;21173;-87
2021/09/18 21:48:12;;;;;;;4.87;3.80;;;;;;;12.69;98.53;98646.16;4300851;81;21142;-87
2021/09/18 21:54:31;;;;;;;3.55;2.55;;;;;;;12.57;97.79;98639.73;4354647;80;21066;-88
2021/09/18 22:07:16;;;;;;;3.25;2.08;;;;;;;12.32;97.93;98639.77;4297652;79;21070;-89
2021/09/18 22:13:17;;;;;;;3.17;2.30;;;;;;;12.42;98.69;98640.34;4361941;80;21569;-88
2021/09/18 22:19:20;;;;;;;4.15;2.60;;;;;;;12.48;98.22;98651.72;4369360;80;21340;-88
2021/09/18 22:25:44;;;;;;;3.80;2.55;;;;;;;12.38;98.67;98645.66;4346314;80;21098;-87
2021/09/18 22:32:13;;;;;;;4.65;2.90;;;;;;;12.47;98.82;98650.94;4358878;80;21034;-89
2021/09/18 22:38:27;;;;;;;7.03;3.62;;;;;;;12.40;98.54;98649.56;4360329;79;21195;-89
2021/09/18 22:51:31;;;;;;;10.32;3.83;;;;;;;12.38;99.34;98653.89;4360685;79;21086;-89
2021/09/18 22:57:33;;;;;;;5.78;4.30;;;;;;;12.45;99.32;98654.66;4339317;80;21008;-89
2021/09/18 23:03:34;;;;;;;6.35;3.45;;;;;;;12.43;99.28;98657.61;4374838;80;20994;-89
2021/09/18 23:09:36;;;;;;;5.75;4.20;;;;;;;12.41;99.37;98653.09;4360385;80;21536;-89
2021/09/18 23:15:59;;;;;;;5.95;3.90;;;;;;;12.38;99.25;98648.40;4339417;79;21526;-88
2021/09/18 23:48:36;;;;;;;8.08;5.20;;;;;;;12.23;99.90;98656.47;4382240;79;21002;-88
2021/09/18 23:54:37;;;;;;;6.35;4.58;;;;;;;12.20;99.98;98648.41;4415190;79;21498;-87
